sensor_id;sensor_type;location;lat;lon;timestamp;temperature;humidity
28171;DHT22;15458;53.346;-1.688;2023-03-14T00:01:11;4.50;99.90
28171;DHT22;15458;53.346;-1.688;2023-03-14T00:03:37;4.50;99.90
28171;DHT22;15458;53.346;-1.688;2023-03-14T00:06:04;4.40;99.90
28171;DHT22;15458;53.346;-1.688;2023-03-14T00:08:30;4.50;99.90
28171;DHT22;15458;53.346;-1.688;2023-03-14T00:10:55;4.50;99.90
28171;DHT22;15458;53.346;-1.688;2023-03-14T00:13:23;4.40;99.90
28171;DHT22;15458;53.346;-1.688;2023-03-14T00:15:49;4.50;99.90
28171;DHT22;15458;53.346;-1.688;2023-03-14T00:18:15;4.50;99.90
28171;DHT22;15458;53.346;-1.688;2023-03-14T00:20:40;4.40;99.90
28171;DHT22;15458;53.346;-1.688;2023-03-14T00:23:06;4.50;99.90
28171;DHT22;15458;53.346;-1.688;2023-03-14T00:25:32;4.50;99.90
28171;DHT22;15458;53.346;-1.688;2023-03-14T00:27:57;4.40;99.90
28171;DHT22;15458;53.346;-1.688;2023-03-14T00:30:23;4.40;99.90
28171;DHT22;15458;53.346;-1.688;2023-03-14T00:32:49;4.40;99.90
28171;DHT22;15458;53.346;-1.688;2023-03-14T00:35:15;4.50;99.90
28171;DHT22;15458;53.346;-1.688;2023-03-14T00:37:41;4.50;99.90
28171;DHT22;15458;53.346;-1.688;2023-03-14T00:40:08;4.50;99.90
28171;DHT22;15458;53.346;-1.688;2023-03-14T00:42:34;4.50;99.90
28171;DHT22;15458;53.346;-1.688;2023-03-14T00:45:00;4.50;99.90
28171;DHT22;15458;53.346;-1.688;2023-03-14T00:47:25;4.50;99.90
28171;DHT22;15458;53.346;-1.688;2023-03-14T00:49:51;4.50;99.90
28171;DHT22;15458;53.346;-1.688;2023-03-14T00:52:17;4.50;99.90
28171;DHT22;15458;53.346;-1.688;2023-03-14T00:54:42;4.50;99.90
28171;DHT22;15458;53.346;-1.688;2023-03-14T00:57:08;4.40;99.90
28171;DHT22;15458;53.346;-1.688;2023-03-14T00:59:34;4.40;99.90
28171;DHT22;15458;53.346;-1.688;2023-03-14T01:01:59;4.40;99.90
28171;DHT22;15458;53.346;-1.688;2023-03-14T01:04:25;4.40;99.90
28171;DHT22;15458;53.346;-1.688;2023-03-14T01:06:50;4.30;99.90
28171;DHT22;15458;53.346;-1.688;2023-03-14T01:09:16;4.30;99.90
28171;DHT22;15458;53.346;-1.688;2023-03-14T01:11:43;4.20;99.90
28171;DHT22;15458;53.346;-1.688;2023-03-14T01:14:12;4.20;99.90
28171;DHT22;15458;53.346;-1.688;2023-03-14T01:16:38;4.20;99.90
28171;DHT22;15458;53.346;-1.688;2023-03-14T01:19:04;4.20;99.90
28171;DHT22;15458;53.346;-1.688;2023-03-14T01:21:32;4.20;99.90
28171;DHT22;15458;53.346;-1.688;2023-03-14T01:24:01;4.10;99.90
28171;DHT22;15458;53.346;-1.688;2023-03-14T01:26:32;4.10;99.90
28171;DHT22;15458;53.346;-1.688;2023-03-14T01:28:59;4.10;99.90
28171;DHT22;15458;53.346;-1.688;2023-03-14T01:31:25;4.10;99.90
28171;DHT22;15458;53.346;-1.688;2023-03-14T01:33:52;4.00;99.90
28171;DHT22;15458;53.346;-1.688;2023-03-14T01:36:18;4.00;99.90
28171;DHT22;15458;53.346;-1.688;2023-03-14T01:38:44;4.00;99.90
28171;DHT22;15458;53.346;-1.688;2023-03-14T01:41:14;3.90;99.90
28171;DHT22;15458;53.346;-1.688;2023-03-14T01:43:40;3.80;99.90
28171;DHT22;15458;53.346;-1.688;2023-03-14T01:48:55;3.80;99.90
28171;DHT22;15458;53.346;-1.688;2023-03-14T01:51:21;3.70;99.90
28171;DHT22;15458;53.346;-1.688;2023-03-14T01:53:49;3.70;99.90
28171;DHT22;15458;53.346;-1.688;2023-03-14T01:56:17;3.70;99.90
28171;DHT22;15458;53.346;-1.688;2023-03-14T01:58:45;3.70;99.90
28171;DHT22;15458;53.346;-1.688;2023-03-14T02:01:13;3.60;99.90
28171;DHT22;15458;53.346;-1.688;2023-03-14T02:03:47;3.60;99.90
28171;DHT22;15458;53.346;-1.688;2023-03-14T02:06:14;3.60;99.90
28171;DHT22;15458;53.346;-1.688;2023-03-14T02:08:42;3.60;99.90
28171;DHT22;15458;53.346;-1.688;2023-03-14T02:11:12;3.60;99.90
28171;DHT22;15458;53.346;-1.688;2023-03-14T02:13:39;3.60;99.90
28171;DHT22;15458;53.346;-1.688;2023-03-14T02:16:04;3.50;99.90
28171;DHT22;15458;53.346;-1.688;2023-03-14T02:18:30;3.50;99.90
28171;DHT22;15458;53.346;-1.688;2023-03-14T02:26:40;3.40;99.90
28171;DHT22;15458;53.346;-1.688;2023-03-14T02:29:08;3.40;99.90
28171;DHT22;15458;53.346;-1.688;2023-03-14T02:31:34;3.30;99.90
28171;DHT22;15458;53.346;-1.688;2023-03-14T02:34:01;3.30;99.90
28171;DHT22;15458;53.346;-1.688;2023-03-14T02:36:27;3.20;99.90
28171;DHT22;15458;53.346;-1.688;2023-03-14T02:39:11;3.20;99.90
28171;DHT22;15458;53.346;-1.688;2023-03-14T02:41:39;3.20;99.90
28171;DHT22;15458;53.346;-1.688;2023-03-14T02:44:05;3.20;99.90
28171;DHT22;15458;53.346;-1.688;2023-03-14T02:46:31;3.20;99.90
28171;DHT22;15458;53.346;-1.688;2023-03-14T02:49:02;3.20;99.90
28171;DHT22;15458;53.346;-1.688;2023-03-14T02:51:28;3.20;99.90
28171;DHT22;15458;53.346;-1.688;2023-03-14T02:53:54;3.20;99.90
28171;DHT22;15458;53.346;-1.688;2023-03-14T02:56:20;3.20;99.90
28171;DHT22;15458;53.346;-1.688;2023-03-14T02:58:46;3.20;99.90
28171;DHT22;15458;53.346;-1.688;2023-03-14T03:01:12;3.10;99.90
28171;DHT22;15458;53.346;-1.688;2023-03-14T03:03:37;3.20;99.90
28171;DHT22;15458;53.346;-1.688;2023-03-14T03:06:03;3.10;99.90
28171;DHT22;15458;53.346;-1.688;2023-03-14T03:08:29;3.10;99.90
28171;DHT22;15458;53.346;-1.688;2023-03-14T03:10:57;3.10;99.90
28171;DHT22;15458;53.346;-1.688;2023-03-14T03:13:22;3.00;99.90
28171;DHT22;15458;53.346;-1.688;2023-03-14T03:15:48;3.00;99.90
28171;DHT22;15458;53.346;-1.688;2023-03-14T03:18:14;3.00;99.90
28171;DHT22;15458;53.346;-1.688;2023-03-14T03:20:40;3.00;99.90
28171;DHT22;15458;53.346;-1.688;2023-03-14T03:23:05;3.00;99.90
28171;DHT22;15458;53.346;-1.688;2023-03-14T03:25:31;3.00;99.90
28171;DHT22;15458;53.346;-1.688;2023-03-14T03:27:57;3.00;99.90
28171;DHT22;15458;53.346;-1.688;2023-03-14T03:30:23;3.00;99.90
28171;DHT22;15458;53.346;-1.688;2023-03-14T03:32:49;2.90;99.90
28171;DHT22;15458;53.346;-1.688;2023-03-14T03:35:15;2.90;99.90
28171;DHT22;15458;53.346;-1.688;2023-03-14T03:37:40;2.90;99.90
28171;DHT22;15458;53.346;-1.688;2023-03-14T03:40:07;2.90;99.90
28171;DHT22;15458;53.346;-1.688;2023-03-14T03:42:34;2.90;99.90
28171;DHT22;15458;53.346;-1.688;2023-03-14T03:45:01;2.90;99.90
28171;DHT22;15458;53.346;-1.688;2023-03-14T03:47:27;2.90;99.90
28171;DHT22;15458;53.346;-1.688;2023-03-14T03:49:55;2.90;99.90
28171;DHT22;15458;53.346;-1.688;2023-03-14T03:52:20;2.90;99.90
28171;DHT22;15458;53.346;-1.688;2023-03-14T03:54:46;2.90;99.90
28171;DHT22;15458;53.346;-1.688;2023-03-14T03:57:12;2.90;99.90
28171;DHT22;15458;53.346;-1.688;2023-03-14T03:59:38;2.90;99.90
28171;DHT22;15458;53.346;-1.688;2023-03-14T04:02:05;2.90;99.90
28171;DHT22;15458;53.346;-1.688;2023-03-14T04:04:31;2.90;99.90
28171;DHT22;15458;53.346;-1.688;2023-03-14T04:06:57;2.80;99.90
28171;DHT22;15458;53.346;-1.688;2023-03-14T04:09:22;2.80;99.90
28171;DHT22;15458;53.346;-1.688;2023-03-14T04:11:48;2.80;99.90
28171;DHT22;15458;53.346;-1.688;2023-03-14T04:14:14;2.80;99.90
28171;DHT22;15458;53.346;-1.688;2023-03-14T04:16:39;2.70;99.90
28171;DHT22;15458;53.346;-1.688;2023-03-14T04:19:05;2.60;99.90
28171;DHT22;15458;53.346;-1.688;2023-03-14T04:21:31;2.60;99.90
28171;DHT22;15458;53.346;-1.688;2023-03-14T04:23:56;2.60;99.90
28171;DHT22;15458;53.346;-1.688;2023-03-14T04:26:22;2.60;99.90
28171;DHT22;15458;53.346;-1.688;2023-03-14T04:28:48;2.50;99.90
28171;DHT22;15458;53.346;-1.688;2023-03-14T04:31:21;2.60;99.90
28171;DHT22;15458;53.346;-1.688;2023-03-14T04:33:47;2.50;99.90
28171;DHT22;15458;53.346;-1.688;2023-03-14T04:36:13;2.50;99.90
28171;DHT22;15458;53.346;-1.688;2023-03-14T04:38:39;2.60;99.90
28171;DHT22;15458;53.346;-1.688;2023-03-14T04:41:05;2.60;99.90
28171;DHT22;15458;53.346;-1.688;2023-03-14T04:43:30;2.60;99.90
28171;DHT22;15458;53.346;-1.688;2023-03-14T04:45:57;2.50;99.90
28171;DHT22;15458;53.346;-1.688;2023-03-14T04:48:24;2.60;99.90
28171;DHT22;15458;53.346;-1.688;2023-03-14T04:50:50;2.60;99.90
28171;DHT22;15458;53.346;-1.688;2023-03-14T04:53:16;2.60;99.90
28171;DHT22;15458;53.346;-1.688;2023-03-14T04:55:46;2.60;99.90
28171;DHT22;15458;53.346;-1.688;2023-03-14T04:58:12;2.60;99.90
28171;DHT22;15458;53.346;-1.688;2023-03-14T05:00:38;2.60;99.90
28171;DHT22;15458;53.346;-1.688;2023-03-14T05:03:03;2.60;99.90
28171;DHT22;15458;53.346;-1.688;2023-03-14T05:05:29;2.60;99.90
28171;DHT22;15458;53.346;-1.688;2023-03-14T05:07:55;2.60;99.90
28171;DHT22;15458;53.346;-1.688;2023-03-14T05:10:20;2.60;99.90
28171;DHT22;15458;53.346;-1.688;2023-03-14T05:12:46;2.50;99.90
28171;DHT22;15458;53.346;-1.688;2023-03-14T05:15:11;2.60;99.90
28171;DHT22;15458;53.346;-1.688;2023-03-14T05:17:37;2.50;99.90
28171;DHT22;15458;53.346;-1.688;2023-03-14T05:20:03;2.50;99.90
28171;DHT22;15458;53.346;-1.688;2023-03-14T05:22:38;2.50;99.90
28171;DHT22;15458;53.346;-1.688;2023-03-14T05:25:04;2.50;99.90
28171;DHT22;15458;53.346;-1.688;2023-03-14T05:27:30;2.50;99.90
28171;DHT22;15458;53.346;-1.688;2023-03-14T05:29:56;2.50;99.90
28171;DHT22;15458;53.346;-1.688;2023-03-14T05:32:21;2.50;99.90
28171;DHT22;15458;53.346;-1.688;2023-03-14T05:34:47;2.50;99.90
28171;DHT22;15458;53.346;-1.688;2023-03-14T05:37:12;2.50;99.90
28171;DHT22;15458;53.346;-1.688;2023-03-14T05:39:38;2.40;99.90
28171;DHT22;15458;53.346;-1.688;2023-03-14T05:42:04;2.40;99.90
28171;DHT22;15458;53.346;-1.688;2023-03-14T05:44:29;2.40;99.90
28171;DHT22;15458;53.346;-1.688;2023-03-14T05:46:55;2.30;99.90
28171;DHT22;15458;53.346;-1.688;2023-03-14T05:49:21;2.30;99.90
28171;DHT22;15458;53.346;-1.688;2023-03-14T05:51:47;2.30;99.90
28171;DHT22;15458;53.346;-1.688;2023-03-14T05:54:12;2.40;99.90
28171;DHT22;15458;53.346;-1.688;2023-03-14T05:56:38;2.40;99.90
28171;DHT22;15458;53.346;-1.688;2023-03-14T05:59:03;2.40;99.90
28171;DHT22;15458;53.346;-1.688;2023-03-14T06:01:30;2.40;99.90
28171;DHT22;15458;53.346;-1.688;2023-03-14T06:03:56;2.40;99.90
28171;DHT22;15458;53.346;-1.688;2023-03-14T06:06:22;2.30;99.90
28171;DHT22;15458;53.346;-1.688;2023-03-14T06:08:47;2.30;99.90
28171;DHT22;15458;53.346;-1.688;2023-03-14T06:11:13;2.30;99.90
28171;DHT22;15458;53.346;-1.688;2023-03-14T06:13:39;2.30;99.90
28171;DHT22;15458;53.346;-1.688;2023-03-14T06:16:05;2.30;99.90
28171;DHT22;15458;53.346;-1.688;2023-03-14T06:18:31;2.20;99.90
28171;DHT22;15458;53.346;-1.688;2023-03-14T06:20:57;2.20;99.90
28171;DHT22;15458;53.346;-1.688;2023-03-14T06:23:23;2.20;99.90
28171;DHT22;15458;53.346;-1.688;2023-03-14T06:25:49;2.20;99.90
28171;DHT22;15458;53.346;-1.688;2023-03-14T06:28:15;2.10;99.90
28171;DHT22;15458;53.346;-1.688;2023-03-14T06:30:41;2.20;99.90
28171;DHT22;15458;53.346;-1.688;2023-03-14T06:33:06;2.20;99.90
28171;DHT22;15458;53.346;-1.688;2023-03-14T06:35:32;2.20;99.90
28171;DHT22;15458;53.346;-1.688;2023-03-14T06:37:58;2.20;99.90
28171;DHT22;15458;53.346;-1.688;2023-03-14T06:40:23;2.20;99.90
28171;DHT22;15458;53.346;-1.688;2023-03-14T06:42:49;2.20;99.90
28171;DHT22;15458;53.346;-1.688;2023-03-14T06:45:15;2.20;99.90
28171;DHT22;15458;53.346;-1.688;2023-03-14T06:47:41;2.20;99.90
28171;DHT22;15458;53.346;-1.688;2023-03-14T06:50:07;2.20;99.90
28171;DHT22;15458;53.346;-1.688;2023-03-14T06:52:34;2.10;99.90
28171;DHT22;15458;53.346;-1.688;2023-03-14T06:54:59;2.10;99.90
28171;DHT22;15458;53.346;-1.688;2023-03-14T06:57:25;2.10;99.90
28171;DHT22;15458;53.346;-1.688;2023-03-14T06:59:51;2.10;99.90
28171;DHT22;15458;53.346;-1.688;2023-03-14T07:02:16;2.10;99.90
28171;DHT22;15458;53.346;-1.688;2023-03-14T07:04:42;2.10;99.90
28171;DHT22;15458;53.346;-1.688;2023-03-14T07:07:08;2.10;99.90
28171;DHT22;15458;53.346;-1.688;2023-03-14T07:09:34;2.10;99.90
28171;DHT22;15458;53.346;-1.688;2023-03-14T07:12:00;2.10;99.90
28171;DHT22;15458;53.346;-1.688;2023-03-14T07:14:26;2.20;99.90
28171;DHT22;15458;53.346;-1.688;2023-03-14T07:16:52;2.10;99.90
28171;DHT22;15458;53.346;-1.688;2023-03-14T07:19:17;2.10;99.90
28171;DHT22;15458;53.346;-1.688;2023-03-14T07:21:43;2.10;99.90
28171;DHT22;15458;53.346;-1.688;2023-03-14T07:24:08;2.10;99.90
28171;DHT22;15458;53.346;-1.688;2023-03-14T07:26:34;2.10;99.90
28171;DHT22;15458;53.346;-1.688;2023-03-14T07:29:00;2.10;99.90
28171;DHT22;15458;53.346;-1.688;2023-03-14T07:31:28;2.10;99.90
28171;DHT22;15458;53.346;-1.688;2023-03-14T07:33:54;2.10;99.90
28171;DHT22;15458;53.346;-1.688;2023-03-14T07:36:20;2.20;99.90
28171;DHT22;15458;53.346;-1.688;2023-03-14T07:38:46;2.10;99.90
28171;DHT22;15458;53.346;-1.688;2023-03-14T07:41:12;2.20;99.90
28171;DHT22;15458;53.346;-1.688;2023-03-14T07:43:38;2.20;99.90
28171;DHT22;15458;53.346;-1.688;2023-03-14T07:46:04;2.20;99.90
28171;DHT22;15458;53.346;-1.688;2023-03-14T07:48:29;2.20;99.90
28171;DHT22;15458;53.346;-1.688;2023-03-14T07:50:56;2.20;99.90
28171;DHT22;15458;53.346;-1.688;2023-03-14T07:53:22;2.20;99.90
28171;DHT22;15458;53.346;-1.688;2023-03-14T07:55:48;2.20;99.90
28171;DHT22;15458;53.346;-1.688;2023-03-14T07:58:15;2.30;99.90
28171;DHT22;15458;53.346;-1.688;2023-03-14T08:00:40;2.20;99.90
28171;DHT22;15458;53.346;-1.688;2023-03-14T08:03:06;2.30;99.90
28171;DHT22;15458;53.346;-1.688;2023-03-14T08:05:37;2.30;99.90
28171;DHT22;15458;53.346;-1.688;2023-03-14T08:08:04;2.30;99.90
28171;DHT22;15458;53.346;-1.688;2023-03-14T08:10:30;2.40;99.90
28171;DHT22;15458;53.346;-1.688;2023-03-14T08:12:57;2.40;99.90
28171;DHT22;15458;53.346;-1.688;2023-03-14T08:15:24;2.40;99.90
28171;DHT22;15458;53.346;-1.688;2023-03-14T08:17:50;2.40;99.90
28171;DHT22;15458;53.346;-1.688;2023-03-14T08:20:17;2.50;99.90
28171;DHT22;15458;53.346;-1.688;2023-03-14T08:22:43;2.50;99.90
28171;DHT22;15458;53.346;-1.688;2023-03-14T08:25:09;2.60;99.90
28171;DHT22;15458;53.346;-1.688;2023-03-14T08:27:35;2.60;99.90
28171;DHT22;15458;53.346;-1.688;2023-03-14T08:30:03;2.70;99.90
28171;DHT22;15458;53.346;-1.688;2023-03-14T08:32:29;2.70;99.90
28171;DHT22;15458;53.346;-1.688;2023-03-14T08:34:55;2.70;99.90
28171;DHT22;15458;53.346;-1.688;2023-03-14T08:37:21;2.70;99.90
28171;DHT22;15458;53.346;-1.688;2023-03-14T08:39:47;2.70;99.90
28171;DHT22;15458;53.346;-1.688;2023-03-14T08:42:12;2.80;99.90
28171;DHT22;15458;53.346;-1.688;2023-03-14T08:44:38;2.90;99.90
28171;DHT22;15458;53.346;-1.688;2023-03-14T08:47:04;2.90;99.90
28171;DHT22;15458;53.346;-1.688;2023-03-14T08:49:29;2.90;99.90
28171;DHT22;15458;53.346;-1.688;2023-03-14T08:51:55;3.00;99.90
28171;DHT22;15458;53.346;-1.688;2023-03-14T08:54:21;3.00;99.90
28171;DHT22;15458;53.346;-1.688;2023-03-14T08:56:46;3.10;99.90
28171;DHT22;15458;53.346;-1.688;2023-03-14T08:59:12;3.10;99.90
28171;DHT22;15458;53.346;-1.688;2023-03-14T09:01:38;3.20;99.90
28171;DHT22;15458;53.346;-1.688;2023-03-14T09:04:03;3.30;99.90
28171;DHT22;15458;53.346;-1.688;2023-03-14T09:06:29;3.30;99.90
28171;DHT22;15458;53.346;-1.688;2023-03-14T09:08:55;3.30;99.90
28171;DHT22;15458;53.346;-1.688;2023-03-14T09:11:20;3.40;99.90
28171;DHT22;15458;53.346;-1.688;2023-03-14T09:13:46;3.50;99.90
28171;DHT22;15458;53.346;-1.688;2023-03-14T09:16:12;3.60;99.90
28171;DHT22;15458;53.346;-1.688;2023-03-14T09:18:37;3.60;99.90
28171;DHT22;15458;53.346;-1.688;2023-03-14T09:21:03;3.70;99.90
28171;DHT22;15458;53.346;-1.688;2023-03-14T09:23:29;3.80;99.90
28171;DHT22;15458;53.346;-1.688;2023-03-14T09:25:56;3.90;99.90
28171;DHT22;15458;53.346;-1.688;2023-03-14T09:28:22;3.90;99.90
28171;DHT22;15458;53.346;-1.688;2023-03-14T09:30:48;4.00;99.90
28171;DHT22;15458;53.346;-1.688;2023-03-14T09:33:15;4.10;99.90
28171;DHT22;15458;53.346;-1.688;2023-03-14T09:35:41;4.30;99.90
28171;DHT22;15458;53.346;-1.688;2023-03-14T09:38:07;4.40;99.90
28171;DHT22;15458;53.346;-1.688;2023-03-14T09:40:35;4.50;99.90
28171;DHT22;15458;53.346;-1.688;2023-03-14T09:43:02;4.60;99.90
28171;DHT22;15458;53.346;-1.688;2023-03-14T09:45:33;4.60;99.90
28171;DHT22;15458;53.346;-1.688;2023-03-14T09:48:02;4.70;99.90
28171;DHT22;15458;53.346;-1.688;2023-03-14T09:50:46;4.70;99.90
28171;DHT22;15458;53.346;-1.688;2023-03-14T09:53:39;4.80;99.90
28171;DHT22;15458;53.346;-1.688;2023-03-14T09:56:21;5.00;99.90
28171;DHT22;15458;53.346;-1.688;2023-03-14T09:59:00;5.20;99.90
28171;DHT22;15458;53.346;-1.688;2023-03-14T10:01:30;5.50;99.90
28171;DHT22;15458;53.346;-1.688;2023-03-14T10:03:58;5.60;99.90
28171;DHT22;15458;53.346;-1.688;2023-03-14T10:06:30;5.80;99.90
28171;DHT22;15458;53.346;-1.688;2023-03-14T10:08:56;6.00;99.90
28171;DHT22;15458;53.346;-1.688;2023-03-14T10:11:25;6.30;99.90
28171;DHT22;15458;53.346;-1.688;2023-03-14T10:14:11;6.50;99.90
28171;DHT22;15458;53.346;-1.688;2023-03-14T10:16:44;6.70;99.90
28171;DHT22;15458;53.346;-1.688;2023-03-14T10:19:13;6.80;99.90
28171;DHT22;15458;53.346;-1.688;2023-03-14T10:22:00;7.00;99.90
28171;DHT22;15458;53.346;-1.688;2023-03-14T10:24:29;7.00;99.90
28171;DHT22;15458;53.346;-1.688;2023-03-14T10:27:04;7.20;99.90
28171;DHT22;15458;53.346;-1.688;2023-03-14T10:29:32;7.30;99.90
28171;DHT22;15458;53.346;-1.688;2023-03-14T10:32:06;7.50;99.90
28171;DHT22;15458;53.346;-1.688;2023-03-14T10:34:38;7.70;99.90
28171;DHT22;15458;53.346;-1.688;2023-03-14T10:37:23;7.70;99.90
28171;DHT22;15458;53.346;-1.688;2023-03-14T10:39:53;7.80;99.90
28171;DHT22;15458;53.346;-1.688;2023-03-14T10:42:39;7.90;98.40
28171;DHT22;15458;53.346;-1.688;2023-03-14T10:45:28;7.90;95.80
28171;DHT22;15458;53.346;-1.688;2023-03-14T10:47:54;8.00;95.60
28171;DHT22;15458;53.346;-1.688;2023-03-14T10:52:49;7.80;94.20
28171;DHT22;15458;53.346;-1.688;2023-03-14T10:55:16;7.60;93.30
28171;DHT22;15458;53.346;-1.688;2023-03-14T10:57:42;7.50;93.60
28171;DHT22;15458;53.346;-1.688;2023-03-14T11:00:18;7.30;93.60
28171;DHT22;15458;53.346;-1.688;2023-03-14T11:05:48;6.80;94.00
28171;DHT22;15458;53.346;-1.688;2023-03-14T11:11:22;6.30;94.80
28171;DHT22;15458;53.346;-1.688;2023-03-14T11:23:01;5.70;96.90
28171;DHT22;15458;53.346;-1.688;2023-03-14T11:25:42;5.50;97.50
28171;DHT22;15458;53.346;-1.688;2023-03-14T11:28:38;5.30;98.20
28171;DHT22;15458;53.346;-1.688;2023-03-14T11:31:14;5.00;99.00
28171;DHT22;15458;53.346;-1.688;2023-03-14T11:36:24;4.30;99.90
28171;DHT22;15458;53.346;-1.688;2023-03-14T11:38:57;4.00;99.90
28171;DHT22;15458;53.346;-1.688;2023-03-14T11:41:36;3.70;99.90
28171;DHT22;15458;53.346;-1.688;2023-03-14T11:44:14;3.50;99.90
28171;DHT22;15458;53.346;-1.688;2023-03-14T11:46:50;3.30;99.90
28171;DHT22;15458;53.346;-1.688;2023-03-14T11:52:05;3.20;99.90
28171;DHT22;15458;53.346;-1.688;2023-03-14T11:57:15;3.50;99.90
28171;DHT22;15458;53.346;-1.688;2023-03-14T12:02:59;4.10;99.90
28171;DHT22;15458;53.346;-1.688;2023-03-14T12:08:53;5.30;99.90
28171;DHT22;15458;53.346;-1.688;2023-03-14T12:13:57;6.70;99.90
28171;DHT22;15458;53.346;-1.688;2023-03-14T12:26:57;9.10;99.90
28171;DHT22;15458;53.346;-1.688;2023-03-14T12:29:23;9.10;99.90
28171;DHT22;15458;53.346;-1.688;2023-03-14T12:32:07;8.90;99.90
28171;DHT22;15458;53.346;-1.688;2023-03-14T12:34:43;8.40;99.90
28171;DHT22;15458;53.346;-1.688;2023-03-14T12:37:19;7.80;99.90
28171;DHT22;15458;53.346;-1.688;2023-03-14T12:50:46;5.70;99.90
28171;DHT22;15458;53.346;-1.688;2023-03-14T12:53:51;5.50;99.90
28171;DHT22;15458;53.346;-1.688;2023-03-14T12:56:28;5.20;99.90
28171;DHT22;15458;53.346;-1.688;2023-03-14T12:59:10;5.00;99.90
28171;DHT22;15458;53.346;-1.688;2023-03-14T13:01:47;4.80;99.90
28171;DHT22;15458;53.346;-1.688;2023-03-14T13:04:13;4.80;99.90
28171;DHT22;15458;53.346;-1.688;2023-03-14T13:06:54;4.90;99.90
28171;DHT22;15458;53.346;-1.688;2023-03-14T13:12:14;4.80;99.90
28171;DHT22;15458;53.346;-1.688;2023-03-14T13:14:46;4.70;99.90
28171;DHT22;15458;53.346;-1.688;2023-03-14T13:17:14;4.50;99.90
28171;DHT22;15458;53.346;-1.688;2023-03-14T13:19:41;4.40;99.90
28171;DHT22;15458;53.346;-1.688;2023-03-14T13:22:24;4.40;99.90
28171;DHT22;15458;53.346;-1.688;2023-03-14T13:24:50;4.30;99.90
28171;DHT22;15458;53.346;-1.688;2023-03-14T13:27:19;4.20;99.90
28171;DHT22;15458;53.346;-1.688;2023-03-14T13:29:49;4.20;99.90
28171;DHT22;15458;53.346;-1.688;2023-03-14T13:32:22;4.20;99.90
28171;DHT22;15458;53.346;-1.688;2023-03-14T13:34:51;4.20;99.90
28171;DHT22;15458;53.346;-1.688;2023-03-14T13:37:20;4.20;99.90
28171;DHT22;15458;53.346;-1.688;2023-03-14T13:39:50;4.20;99.90
28171;DHT22;15458;53.346;-1.688;2023-03-14T13:42:17;4.30;99.90
28171;DHT22;15458;53.346;-1.688;2023-03-14T13:44:43;4.30;99.90
28171;DHT22;15458;53.346;-1.688;2023-03-14T13:47:17;4.40;99.90
28171;DHT22;15458;53.346;-1.688;2023-03-14T13:49:43;4.40;99.90
28171;DHT22;15458;53.346;-1.688;2023-03-14T13:52:37;4.40;99.90
28171;DHT22;15458;53.346;-1.688;2023-03-14T13:55:03;4.30;99.90
28171;DHT22;15458;53.346;-1.688;2023-03-14T13:57:48;4.30;99.90
28171;DHT22;15458;53.346;-1.688;2023-03-14T14:00:19;4.30;99.90
28171;DHT22;15458;53.346;-1.688;2023-03-14T14:02:45;4.20;99.90
28171;DHT22;15458;53.346;-1.688;2023-03-14T14:05:13;4.20;99.90
28171;DHT22;15458;53.346;-1.688;2023-03-14T14:07:40;4.20;99.90
28171;DHT22;15458;53.346;-1.688;2023-03-14T14:10:09;4.20;99.90
28171;DHT22;15458;53.346;-1.688;2023-03-14T14:12:41;4.10;99.90
28171;DHT22;15458;53.346;-1.688;2023-03-14T14:15:29;4.10;99.90
28171;DHT22;15458;53.346;-1.688;2023-03-14T14:18:01;4.00;99.90
28171;DHT22;15458;53.346;-1.688;2023-03-14T14:20:36;4.00;99.90
28171;DHT22;15458;53.346;-1.688;2023-03-14T14:23:24;4.00;99.90
28171;DHT22;15458;53.346;-1.688;2023-03-14T14:25:55;4.00;99.90
28171;DHT22;15458;53.346;-1.688;2023-03-14T14:34:02;4.00;99.90
28171;DHT22;15458;53.346;-1.688;2023-03-14T14:36:42;4.00;99.90
28171;DHT22;15458;53.346;-1.688;2023-03-14T14:39:26;4.00;99.90
28171;DHT22;15458;53.346;-1.688;2023-03-14T14:41:54;3.80;99.90
28171;DHT22;15458;53.346;-1.688;2023-03-14T14:44:32;3.70;99.90
28171;DHT22;15458;53.346;-1.688;2023-03-14T14:46:59;3.50;99.90
28171;DHT22;15458;53.346;-1.688;2023-03-14T14:49:31;3.40;99.90
28171;DHT22;15458;53.346;-1.688;2023-03-14T14:52:12;3.30;99.90
28171;DHT22;15458;53.346;-1.688;2023-03-14T14:54:52;3.20;99.90
28171;DHT22;15458;53.346;-1.688;2023-03-14T14:57:38;3.20;99.90
28171;DHT22;15458;53.346;-1.688;2023-03-14T15:00:17;3.20;99.90
28171;DHT22;15458;53.346;-1.688;2023-03-14T15:02:46;3.20;99.90
28171;DHT22;15458;53.346;-1.688;2023-03-14T15:05:15;3.10;99.90
28171;DHT22;15458;53.346;-1.688;2023-03-14T15:07:41;3.20;99.90
28171;DHT22;15458;53.346;-1.688;2023-03-14T15:10:10;3.20;99.90
28171;DHT22;15458;53.346;-1.688;2023-03-14T15:12:36;3.20;99.90
28171;DHT22;15458;53.346;-1.688;2023-03-14T15:15:02;3.10;99.90
28171;DHT22;15458;53.346;-1.688;2023-03-14T15:17:27;3.00;99.90
28171;DHT22;15458;53.346;-1.688;2023-03-14T15:19:53;2.90;99.90
28171;DHT22;15458;53.346;-1.688;2023-03-14T15:22:18;2.80;99.90
28171;DHT22;15458;53.346;-1.688;2023-03-14T15:24:45;2.80;99.90
28171;DHT22;15458;53.346;-1.688;2023-03-14T15:27:15;2.70;99.90
28171;DHT22;15458;53.346;-1.688;2023-03-14T15:29:41;2.70;99.90
28171;DHT22;15458;53.346;-1.688;2023-03-14T15:32:13;2.60;99.90
28171;DHT22;15458;53.346;-1.688;2023-03-14T15:34:40;2.70;99.90
28171;DHT22;15458;53.346;-1.688;2023-03-14T15:37:12;2.70;99.90
28171;DHT22;15458;53.346;-1.688;2023-03-14T15:39:39;2.70;99.90
28171;DHT22;15458;53.346;-1.688;2023-03-14T15:42:05;2.70;99.90
28171;DHT22;15458;53.346;-1.688;2023-03-14T15:44:31;2.70;99.90
28171;DHT22;15458;53.346;-1.688;2023-03-14T15:46:56;2.70;99.90
28171;DHT22;15458;53.346;-1.688;2023-03-14T15:49:22;2.70;99.90
28171;DHT22;15458;53.346;-1.688;2023-03-14T15:51:47;2.70;99.90
28171;DHT22;15458;53.346;-1.688;2023-03-14T15:54:14;2.70;99.90
28171;DHT22;15458;53.346;-1.688;2023-03-14T15:56:40;2.70;99.90
28171;DHT22;15458;53.346;-1.688;2023-03-14T15:59:05;2.70;99.90
28171;DHT22;15458;53.346;-1.688;2023-03-14T16:01:31;2.70;99.90
28171;DHT22;15458;53.346;-1.688;2023-03-14T16:03:57;2.70;99.90
28171;DHT22;15458;53.346;-1.688;2023-03-14T16:06:22;2.70;99.90
28171;DHT22;15458;53.346;-1.688;2023-03-14T16:08:48;2.80;99.90
28171;DHT22;15458;53.346;-1.688;2023-03-14T16:11:14;2.80;99.90
28171;DHT22;15458;53.346;-1.688;2023-03-14T16:13:40;2.80;99.90
28171;DHT22;15458;53.346;-1.688;2023-03-14T16:16:07;2.80;99.90
28171;DHT22;15458;53.346;-1.688;2023-03-14T16:18:36;2.90;99.90
28171;DHT22;15458;53.346;-1.688;2023-03-14T16:21:04;2.90;99.90
28171;DHT22;15458;53.346;-1.688;2023-03-14T16:23:32;2.90;99.90
28171;DHT22;15458;53.346;-1.688;2023-03-14T16:25:58;3.00;99.90
28171;DHT22;15458;53.346;-1.688;2023-03-14T16:28:25;2.90;99.90
28171;DHT22;15458;53.346;-1.688;2023-03-14T16:30:51;3.00;99.90
28171;DHT22;15458;53.346;-1.688;2023-03-14T16:33:18;3.00;99.90
28171;DHT22;15458;53.346;-1.688;2023-03-14T16:35:55;2.90;99.90
28171;DHT22;15458;53.346;-1.688;2023-03-14T16:38:22;3.00;99.90
28171;DHT22;15458;53.346;-1.688;2023-03-14T16:40:56;2.90;99.90
28171;DHT22;15458;53.346;-1.688;2023-03-14T16:43:22;3.00;99.90
28171;DHT22;15458;53.346;-1.688;2023-03-14T16:45:49;3.00;99.90
28171;DHT22;15458;53.346;-1.688;2023-03-14T16:48:15;2.90;99.90
28171;DHT22;15458;53.346;-1.688;2023-03-14T16:50:41;2.90;99.90